Time;durP1;ratioP1;P1;durP2;ratioP2;P2;SDS_P1;SDS_P2;PMS_P1;PMS_P2;Temp;Humidity;BMP_temperature;BMP_pressure;BME280_temperature;BME280_humidity;BME280_pressure;Samples;Min_cycle;Max_cycle;Signal;HPM_P1;HPM_P2
2020/12/27 00:00:27;;;;;;;8.03;6.90;;;;;;;;;;5096736;28;20238;-86
2020/12/27 00:02:53;;;;;;;9.67;7.40;;;;;;;;;;5096957;28;20256;-90
2020/12/27 00:05:21;;;;;;;11.23;7.57;;;;;;;;;;5096773;28;20642;-84
2020/12/27 00:07:47;;;;;;;10.73;7.10;;;;;;;;;;5097057;28;20233;-85
2020/12/27 00:10:13;;;;;;;9.40;7.50;;;;;;;;;;5096970;28;20671;-85
2020/12/27 00:12:39;;;;;;;9.60;8.03;;;;;;;;;;5096327;28;20225;-83
2020/12/27 00:15:05;;;;;;;8.77;7.17;;;;;;;;;;5096825;28;20226;-83
2020/12/27 00:17:32;;;;;;;8.37;6.93;;;;;;;;;;5096174;28;20243;-88
2020/12/27 00:19:58;;;;;;;8.63;7.00;;;;;;;;;;5096505;28;20247;-89
2020/12/27 00:22:24;;;;;;;9.73;6.73;;;;;;;;;;5095756;28;20225;-88
2020/12/27 00:24:50;;;;;;;10.00;7.40;;;;;;;;;;5096493;28;20238;-88
2020/12/27 00:27:16;;;;;;;12.57;8.20;;;;;;;;;;5096687;28;20233;-91
2020/12/27 00:29:43;;;;;;;10.50;8.00;;;;;;;;;;5096967;28;20244;-86
2020/12/27 00:32:09;;;;;;;13.47;7.50;;;;;;;;;;5096725;28;20238;-87
2020/12/27 00:34:37;;;;;;;10.00;7.40;;;;;;;;;;5096766;28;20249;-88
2020/12/27 00:37:03;;;;;;;9.80;7.27;;;;;;;;;;5096819;28;20597;-85
2020/12/27 00:39:30;;;;;;;7.97;6.87;;;;;;;;;;5097952;28;20229;-91
2020/12/27 00:41:59;;;;;;;12.60;7.00;;;;;;;;;;5097448;28;20206;-92
2020/12/27 00:44:25;;;;;;;11.40;8.03;;;;;;;;;;5097162;28;20257;-92
2020/12/27 00:46:52;;;;;;;11.83;7.20;;;;;;;;;;5097177;28;20240;-84
2020/12/27 00:49:18;;;;;;;13.20;7.10;;;;;;;;;;5097656;28;20622;-92
2020/12/27 00:51:45;;;;;;;11.37;7.20;;;;;;;;;;5096890;28;20548;-82
2020/12/27 00:54:11;;;;;;;8.80;7.53;;;;;;;;;;5096243;28;20233;-90
2020/12/27 00:56:37;;;;;;;9.50;7.07;;;;;;;;;;5096429;28;20229;-82
2020/12/27 00:59:03;;;;;;;9.47;7.80;;;;;;;;;;5096676;28;20236;-93
2020/12/27 01:01:29;;;;;;;7.67;6.87;;;;;;;;;;5096536;28;20238;-90
2020/12/27 01:03:56;;;;;;;8.03;6.33;;;;;;;;;;5096760;28;20250;-84
2020/12/27 01:06:22;;;;;;;9.90;6.73;;;;;;;;;;5096649;28;20230;-87
2020/12/27 01:08:49;;;;;;;9.77;7.07;;;;;;;;;;5096674;28;20240;-90
2020/12/27 01:11:15;;;;;;;9.70;8.27;;;;;;;;;;5095380;28;20783;-87
2020/12/27 01:13:41;;;;;;;8.07;6.90;;;;;;;;;;5096003;28;20229;-87
2020/12/27 01:16:09;;;;;;;7.67;6.43;;;;;;;;;;5095986;28;20543;-84
2020/12/27 01:18:35;;;;;;;10.30;6.63;;;;;;;;;;5095794;28;20229;-88
2020/12/27 01:21:01;;;;;;;8.70;5.77;;;;;;;;;;5095469;28;20610;-88
2020/12/27 01:23:27;;;;;;;7.17;5.50;;;;;;;;;;5095464;28;20241;-84
2020/12/27 01:25:54;;;;;;;8.17;5.97;;;;;;;;;;5095876;28;20233;-87
2020/12/27 01:28:20;;;;;;;8.30;6.17;;;;;;;;;;5095876;28;20240;-87
2020/12/27 01:30:46;;;;;;;9.83;6.47;;;;;;;;;;5095990;28;20634;-89
2020/12/27 01:33:12;;;;;;;6.97;5.97;;;;;;;;;;5095762;28;20214;-81
2020/12/27 01:35:38;;;;;;;7.43;6.30;;;;;;;;;;5095006;28;20248;-86
2020/12/27 01:38:05;;;;;;;7.20;5.87;;;;;;;;;;5096200;28;20229;-85
2020/12/27 01:40:31;;;;;;;7.17;5.83;;;;;;;;;;5095106;28;20625;-85
2020/12/27 01:42:58;;;;;;;8.57;5.70;;;;;;;;;;5095496;28;20249;-83
2020/12/27 01:45:25;;;;;;;8.73;5.83;;;;;;;;;;5095318;28;20229;-84
2020/12/27 01:47:51;;;;;;;6.73;5.30;;;;;;;;;;5100231;28;20214;-83
2020/12/27 01:50:18;;;;;;;8.80;5.47;;;;;;;;;;5098784;28;20224;-87
2020/12/27 01:52:44;;;;;;;7.23;5.63;;;;;;;;;;5099226;28;20206;-88
2020/12/27 01:55:11;;;;;;;6.60;5.90;;;;;;;;;;5096461;28;20205;-82
2020/12/27 01:57:46;;;;;;;6.37;5.43;;;;;;;;;;5097070;28;20209;-81
2020/12/27 02:00:13;;;;;;;7.10;5.40;;;;;;;;;;5097668;28;20632;-83
2020/12/27 02:02:39;;;;;;;6.60;5.43;;;;;;;;;;5095599;28;20247;-89
2020/12/27 02:05:05;;;;;;;7.70;5.50;;;;;;;;;;5094887;28;20229;-83
2020/12/27 02:07:31;;;;;;;7.03;5.70;;;;;;;;;;5095383;28;20487;-83
2020/12/27 02:09:58;;;;;;;6.10;5.50;;;;;;;;;;5095540;28;20241;-83
2020/12/27 02:12:25;;;;;;;8.33;5.67;;;;;;;;;;5095641;28;20264;-86
2020/12/27 02:14:52;;;;;;;6.53;5.50;;;;;;;;;;5094947;28;20234;-86
2020/12/27 02:17:19;;;;;;;6.57;5.50;;;;;;;;;;5095389;28;20212;-87
2020/12/27 02:19:45;;;;;;;8.13;5.80;;;;;;;;;;5094729;28;20237;-87
2020/12/27 02:22:11;;;;;;;6.67;5.50;;;;;;;;;;5094727;28;20246;-86
2020/12/27 02:24:38;;;;;;;6.50;5.17;;;;;;;;;;5095013;28;20301;-82
2020/12/27 02:27:05;;;;;;;9.50;5.33;;;;;;;;;;5094591;28;20225;-84
2020/12/27 02:29:33;;;;;;;6.23;4.90;;;;;;;;;;5094882;28;20214;-84
2020/12/27 02:32:00;;;;;;;6.60;5.73;;;;;;;;;;5094899;28;20237;-87
2020/12/27 02:34:26;;;;;;;7.97;5.10;;;;;;;;;;5094544;28;20213;-88
2020/12/27 02:36:52;;;;;;;7.77;4.73;;;;;;;;;;5098971;28;20233;-85
2020/12/27 02:39:19;;;;;;;6.60;5.50;;;;;;;;;;5099263;28;20205;-89
2020/12/27 02:41:48;;;;;;;5.00;4.43;;;;;;;;;;5099302;28;20229;-87
2020/12/27 02:44:15;;;;;;;6.60;4.80;;;;;;;;;;5098725;28;20253;-83
2020/12/27 02:46:41;;;;;;;5.33;4.83;;;;;;;;;;5098545;28;20209;-88
2020/12/27 02:49:07;;;;;;;7.20;5.27;;;;;;;;;;5098748;28;20265;-84
2020/12/27 02:51:34;;;;;;;7.27;5.17;;;;;;;;;;5098058;28;20226;-87
2020/12/27 02:54:00;;;;;;;5.87;5.07;;;;;;;;;;5098802;28;20237;-88
2020/12/27 02:56:27;;;;;;;8.50;4.77;;;;;;;;;;5098487;28;20228;-84
2020/12/27 02:58:55;;;;;;;6.37;4.73;;;;;;;;;;5098799;28;20213;-83
2020/12/27 03:01:21;;;;;;;7.27;4.73;;;;;;;;;;5098336;28;20248;-84
2020/12/27 03:03:47;;;;;;;7.00;4.67;;;;;;;;;;5098591;28;20249;-88
2020/12/27 03:06:13;;;;;;;5.70;4.77;;;;;;;;;;5098723;28;20322;-81
2020/12/27 03:08:39;;;;;;;6.03;5.37;;;;;;;;;;5098325;28;20319;-88
2020/12/27 03:11:06;;;;;;;7.23;5.17;;;;;;;;;;5098839;28;20238;-89
2020/12/27 03:13:33;;;;;;;5.70;4.60;;;;;;;;;;5098441;28;20292;-87
2020/12/27 03:15:59;;;;;;;6.27;4.90;;;;;;;;;;5098531;28;20520;-86
2020/12/27 03:18:26;;;;;;;6.93;4.90;;;;;;;;;;5098460;28;20208;-87
2020/12/27 03:20:52;;;;;;;6.20;4.70;;;;;;;;;;5098410;28;20547;-82
2020/12/27 03:23:18;;;;;;;7.47;5.17;;;;;;;;;;5098439;28;20253;-86
2020/12/27 03:25:44;;;;;;;7.73;5.20;;;;;;;;;;5097655;28;20543;-86
2020/12/27 03:28:11;;;;;;;10.47;5.30;;;;;;;;;;5098268;28;20229;-82
2020/12/27 03:30:37;;;;;;;5.83;5.03;;;;;;;;;;5098108;28;20252;-83
2020/12/27 03:33:04;;;;;;;5.63;4.87;;;;;;;;;;5098108;28;20238;-87
2020/12/27 03:35:30;;;;;;;5.67;4.87;;;;;;;;;;5097275;28;20233;-87
2020/12/27 03:37:56;;;;;;;5.70;4.70;;;;;;;;;;5098056;28;20619;-88
2020/12/27 03:40:23;;;;;;;6.53;5.00;;;;;;;;;;5097893;28;20229;-83
2020/12/27 03:42:50;;;;;;;6.27;5.30;;;;;;;;;;5097887;28;20221;-87
2020/12/27 03:45:16;;;;;;;6.77;5.37;;;;;;;;;;5097316;28;20495;-88
2020/12/27 03:47:42;;;;;;;10.27;5.03;;;;;;;;;;5097402;28;20345;-87
2020/12/27 03:50:09;;;;;;;8.03;5.60;;;;;;;;;;5098026;28;20233;-87
2020/12/27 03:52:35;;;;;;;7.17;5.20;;;;;;;;;;5097719;28;20206;-81
2020/12/27 03:55:01;;;;;;;7.07;5.90;;;;;;;;;;5097485;28;20233;-83
2020/12/27 03:57:27;;;;;;;7.07;5.30;;;;;;;;;;5097723;28;20248;-89
2020/12/27 03:59:53;;;;;;;6.63;5.13;;;;;;;;;;5097161;28;20233;-85
2020/12/27 04:02:20;;;;;;;6.10;5.23;;;;;;;;;;5097682;28;20516;-86
2020/12/27 04:04:46;;;;;;;5.93;4.67;;;;;;;;;;5096939;28;20246;-83
2020/12/27 04:07:13;;;;;;;6.57;5.07;;;;;;;;;;5097899;28;20236;-84
2020/12/27 04:09:39;;;;;;;6.93;4.87;;;;;;;;;;5096990;28;20602;-81
2020/12/27 04:12:05;;;;;;;6.17;4.60;;;;;;;;;;5097577;28;20225;-83
2020/12/27 04:14:31;;;;;;;6.30;4.87;;;;;;;;;;5096935;28;20236;-90
2020/12/27 04:16:57;;;;;;;6.67;4.40;;;;;;;;;;5097450;28;20237;-81
2020/12/27 04:19:23;;;;;;;9.80;5.10;;;;;;;;;;5097275;28;20507;-89
2020/12/27 04:21:49;;;;;;;5.53;4.70;;;;;;;;;;5097570;28;20255;-89
2020/12/27 04:24:16;;;;;;;7.33;4.87;;;;;;;;;;5096729;28;20252;-83
2020/12/27 04:26:43;;;;;;;6.87;4.53;;;;;;;;;;5097393;28;20225;-84
2020/12/27 04:29:09;;;;;;;5.33;4.83;;;;;;;;;;5096686;28;20233;-81
2020/12/27 04:31:35;;;;;;;5.83;4.73;;;;;;;;;;5097172;28;20233;-82
2020/12/27 04:34:01;;;;;;;8.10;5.00;;;;;;;;;;5096235;28;20233;-82
2020/12/27 04:36:27;;;;;;;6.93;5.00;;;;;;;;;;5096946;28;20534;-83
2020/12/27 04:38:53;;;;;;;9.07;5.00;;;;;;;;;;5096469;28;20238;-82
2020/12/27 04:41:20;;;;;;;7.23;5.00;;;;;;;;;;5096274;28;20240;-89
2020/12/27 04:43:48;;;;;;;9.87;5.13;;;;;;;;;;5096865;28;20614;-87
2020/12/27 04:46:15;;;;;;;6.63;4.83;;;;;;;;;;5096981;28;20232;-84
2020/12/27 04:48:42;;;;;;;7.23;4.80;;;;;;;;;;5096699;28;20248;-82
2020/12/27 04:51:09;;;;;;;4.83;4.37;;;;;;;;;;5096488;28;20607;-88
2020/12/27 04:53:36;;;;;;;5.60;4.30;;;;;;;;;;5096408;28;20232;-84
2020/12/27 04:56:02;;;;;;;6.23;4.50;;;;;;;;;;5096551;28;20566;-84
2020/12/27 04:58:29;;;;;;;7.57;4.93;;;;;;;;;;5095305;28;20472;-89
2020/12/27 05:00:56;;;;;;;9.50;5.20;;;;;;;;;;5096638;28;20233;-87
2020/12/27 05:03:22;;;;;;;5.87;4.60;;;;;;;;;;5097286;28;20206;-84
2020/12/27 05:05:48;;;;;;;5.30;4.47;;;;;;;;;;5096720;28;20621;-82
2020/12/27 05:08:14;;;;;;;8.33;4.63;;;;;;;;;;5096232;28;20381;-87
2020/12/27 05:10:41;;;;;;;7.53;4.87;;;;;;;;;;5101308;28;20202;-87
2020/12/27 05:13:07;;;;;;;6.53;4.87;;;;;;;;;;5099167;28;20479;-87
2020/12/27 05:15:34;;;;;;;5.23;4.03;;;;;;;;;;5100639;28;20209;-89
2020/12/27 05:18:00;;;;;;;18.03;4.73;;;;;;;;;;5104085;28;20209;-88
2020/12/27 05:20:27;;;;;;;5.10;4.40;;;;;;;;;;5100215;28;20206;-88
2020/12/27 05:22:58;;;;;;;5.20;4.70;;;;;;;;;;5099957;28;20291;-89
2020/12/27 05:25:24;;;;;;;6.00;4.73;;;;;;;;;;5098549;28;20217;-89
2020/12/27 05:27:53;;;;;;;6.23;4.70;;;;;;;;;;5097004;28;20205;-88
2020/12/27 05:30:24;;;;;;;5.93;4.70;;;;;;;;;;5095982;28;20238;-88
2020/12/27 05:32:51;;;;;;;7.63;4.90;;;;;;;;;;5095980;28;20233;-87
2020/12/27 05:35:17;;;;;;;5.30;4.70;;;;;;;;;;5095536;28;20621;-84
2020/12/27 05:37:44;;;;;;;7.27;5.03;;;;;;;;;;5095451;28;20236;-84
2020/12/27 05:40:10;;;;;;;6.10;4.60;;;;;;;;;;5095282;28;20240;-85
2020/12/27 05:42:36;;;;;;;5.03;4.53;;;;;;;;;;5095629;28;20225;-89
2020/12/27 05:45:12;;;;;;;6.57;4.80;;;;;;;;;;5095604;28;20256;-84
2020/12/27 05:47:39;;;;;;;6.30;4.87;;;;;;;;;;5095697;28;20660;-86
2020/12/27 05:50:07;;;;;;;8.20;4.50;;;;;;;;;;5095212;28;20233;-80
2020/12/27 05:52:34;;;;;;;7.80;4.63;;;;;;;;;;5095593;28;20233;-88
2020/12/27 05:55:02;;;;;;;4.67;4.27;;;;;;;;;;5095573;28;20226;-83
2020/12/27 05:57:28;;;;;;;5.00;4.43;;;;;;;;;;5095736;28;20555;-89
2020/12/27 05:59:55;;;;;;;6.37;4.03;;;;;;;;;;5095288;28;20229;-88
2020/12/27 06:02:42;;;;;;;4.83;3.60;;;;;;;;;;5095901;28;20222;-93
2020/12/27 06:05:12;;;;;;;5.70;3.80;;;;;;;;;;5089447;28;20249;-81
2020/12/27 06:07:39;;;;;;;4.43;3.80;;;;;;;;;;5095152;28;20240;-83
2020/12/27 06:10:07;;;;;;;4.20;3.80;;;;;;;;;;5094844;28;20252;-87
2020/12/27 06:12:46;;;;;;;5.67;3.87;;;;;;;;;;5095236;28;20236;-79
2020/12/27 06:15:22;;;;;;;3.57;3.27;;;;;;;;;;5094940;28;20225;-80
2020/12/27 06:17:57;;;;;;;4.43;4.03;;;;;;;;;;5094966;28;20614;-90
2020/12/27 06:20:24;;;;;;;5.67;3.57;;;;;;;;;;5094923;28;20489;-86
2020/12/27 06:22:50;;;;;;;4.30;3.90;;;;;;;;;;5095225;28;20233;-84
2020/12/27 06:25:17;;;;;;;3.63;3.20;;;;;;;;;;5095051;28;20249;-94
2020/12/27 06:27:43;;;;;;;6.20;3.97;;;;;;;;;;5094890;28;20637;-89
2020/12/27 06:30:10;;;;;;;6.17;3.40;;;;;;;;;;5095459;28;20225;-81
2020/12/27 06:32:41;;;;;;;3.97;3.30;;;;;;;;;;5095038;28;20621;-79
2020/12/27 06:35:11;;;;;;;3.10;2.90;;;;;;;;;;5095215;28;20241;-90
2020/12/27 06:37:42;;;;;;;3.37;3.07;;;;;;;;;;5095739;28;20205;-80
2020/12/27 06:40:08;;;;;;;4.13;2.97;;;;;;;;;;5094921;28;20213;-80
2020/12/27 06:42:34;;;;;;;4.67;2.90;;;;;;;;;;5095232;28;20629;-80
2020/12/27 06:45:00;;;;;;;2.90;2.70;;;;;;;;;;5094991;28;20249;-85
2020/12/27 06:47:41;;;;;;;3.70;2.70;;;;;;;;;;5095124;28;20516;-79
2020/12/27 06:50:17;;;;;;;2.90;2.40;;;;;;;;;;5094984;28;20237;-94
2020/12/27 06:52:44;;;;;;;3.40;3.00;;;;;;;;;;5095039;28;20278;-94
2020/12/27 06:55:11;;;;;;;3.10;2.80;;;;;;;;;;5094878;28;20533;-91
2020/12/27 06:57:41;;;;;;;2.80;2.47;;;;;;;;;;5094940;28;20205;-81
2020/12/27 07:00:23;;;;;;;3.37;2.20;;;;;;;;;;5095565;28;20389;-93
2020/12/27 07:03:04;;;;;;;3.30;3.00;;;;;;;;;;5095108;28;20817;-82
2020/12/27 07:05:33;;;;;;;2.90;2.70;;;;;;;;;;5094694;28;20898;-87
2020/12/27 07:08:02;;;;;;;3.03;2.40;;;;;;;;;;5094497;28;20538;-81
2020/12/27 07:10:29;;;;;;;3.00;2.47;;;;;;;;;;5094570;28;20234;-80
2020/12/27 07:13:00;;;;;;;2.70;2.50;;;;;;;;;;5094315;28;20229;-81
2020/12/27 07:15:27;;;;;;;2.93;2.63;;;;;;;;;;5095004;28;20229;-80
2020/12/27 07:17:54;;;;;;;2.50;2.33;;;;;;;;;;5094704;28;20209;-80
2020/12/27 07:20:22;;;;;;;3.97;2.70;;;;;;;;;;5094889;28;20531;-80
2020/12/27 07:22:53;;;;;;;2.77;2.23;;;;;;;;;;5097566;28;20236;-80
2020/12/27 07:25:24;;;;;;;4.40;2.53;;;;;;;;;;5097896;28;20241;-79
2020/12/27 07:27:50;;;;;;;3.03;2.30;;;;;;;;;;5098020;28;20662;-82
2020/12/27 07:30:17;;;;;;;2.77;2.37;;;;;;;;;;5098170;28;20782;-82
2020/12/27 07:32:43;;;;;;;2.67;2.40;;;;;;;;;;5098198;28;20236;-82
2020/12/27 07:35:10;;;;;;;3.43;2.70;;;;;;;;;;5097788;28;20245;-82
2020/12/27 07:37:36;;;;;;;2.17;2.07;;;;;;;;;;5097999;28;20236;-82
2020/12/27 07:40:03;;;;;;;2.67;2.30;;;;;;;;;;5097894;28;20432;-80
2020/12/27 07:42:31;;;;;;;2.47;2.20;;;;;;;;;;5097669;28;20618;-82
2020/12/27 07:44:58;;;;;;;2.40;2.23;;;;;;;;;;5097335;28;20253;-82
2020/12/27 07:47:24;;;;;;;3.20;2.33;;;;;;;;;;5097907;28;20225;-82
2020/12/27 07:50:06;;;;;;;2.20;2.10;;;;;;;;;;5097658;28;20711;-82
2020/12/27 07:52:40;;;;;;;2.40;2.20;;;;;;;;;;5097951;28;20238;-82
2020/12/27 07:55:07;;;;;;;2.83;2.53;;;;;;;;;;5097434;28;20267;-83
2020/12/27 07:57:34;;;;;;;3.10;2.37;;;;;;;;;;5097151;28;20227;-82
2020/12/27 08:00:04;;;;;;;3.47;2.67;;;;;;;;;;5097392;28;20233;-81
2020/12/27 08:02:31;;;;;;;5.03;2.57;;;;;;;;;;5097000;28;20553;-83
2020/12/27 08:04:58;;;;;;;2.50;2.30;;;;;;;;;;5094089;28;20253;-83
2020/12/27 08:07:24;;;;;;;2.37;2.17;;;;;;;;;;5096775;28;20251;-82
2020/12/27 08:09:50;;;;;;;2.17;2.07;;;;;;;;;;5096927;28;20229;-84
2020/12/27 08:12:16;;;;;;;3.37;2.50;;;;;;;;;;5096772;28;20625;-81
2020/12/27 08:14:43;;;;;;;3.77;2.53;;;;;;;;;;5096770;28;20544;-81
2020/12/27 08:17:14;;;;;;;2.20;2.00;;;;;;;;;;5096539;28;20226;-81
2020/12/27 08:19:40;;;;;;;3.80;2.20;;;;;;;;;;5096268;28;20194;-81
2020/12/27 08:22:06;;;;;;;3.83;2.00;;;;;;;;;;5096513;28;20228;-81
2020/12/27 08:24:32;;;;;;;3.33;2.17;;;;;;;;;;5096378;28;20245;-87
2020/12/27 08:26:58;;;;;;;2.57;2.20;;;;;;;;;;5096179;28;20229;-84
2020/12/27 08:29:26;;;;;;;3.30;2.20;;;;;;;;;;5096263;28;20526;-82
2020/12/27 08:31:53;;;;;;;2.37;2.17;;;;;;;;;;5096133;28;20224;-82
2020/12/27 08:34:20;;;;;;;2.23;2.13;;;;;;;;;;5096094;28;20241;-83
2020/12/27 08:36:48;;;;;;;2.90;2.10;;;;;;;;;;5096666;28;20197;-84
2020/12/27 08:39:21;;;;;;;2.40;2.20;;;;;;;;;;5096417;28;20228;-83
2020/12/27 08:41:53;;;;;;;3.03;1.93;;;;;;;;;;5094368;28;20229;-83
2020/12/27 08:44:24;;;;;;;2.07;1.97;;;;;;;;;;5096094;28;20241;-83
2020/12/27 08:46:51;;;;;;;4.17;2.10;;;;;;;;;;5096272;28;20514;-82
2020/12/27 08:49:21;;;;;;;3.90;1.90;;;;;;;;;;5096192;28;20629;-84
2020/12/27 08:51:50;;;;;;;3.63;2.17;;;;;;;;;;5093983;28;20222;-84
2020/12/27 08:54:17;;;;;;;3.43;2.13;;;;;;;;;;5096058;28;20519;-85
2020/12/27 08:56:43;;;;;;;2.20;2.00;;;;;;;;;;5092821;28;20237;-82
2020/12/27 08:59:12;;;;;;;1.80;1.70;;;;;;;;;;5095532;28;20218;-83
2020/12/27 09:01:38;;;;;;;7.90;1.90;;;;;;;;;;5094632;28;20267;-82
2020/12/27 09:04:04;;;;;;;1.80;1.70;;;;;;;;;;5095625;28;20229;-86
2020/12/27 09:06:33;;;;;;;1.73;1.50;;;;;;;;;;5095813;28;20286;-84
2020/12/27 09:08:59;;;;;;;1.90;1.80;;;;;;;;;;5096439;28;20537;-83
2020/12/27 09:11:26;;;;;;;3.67;1.70;;;;;;;;;;5096289;28;20629;-85
2020/12/27 09:13:53;;;;;;;7.20;4.73;;;;;;;;;;5095009;28;20225;-85
2020/12/27 09:16:40;;;;;;;4.27;3.87;;;;;;;;;;5095384;28;20221;-82
2020/12/27 09:19:10;;;;;;;2.13;2.00;;;;;;;;;;5089409;28;20248;-83
2020/12/27 09:21:41;;;;;;;2.13;2.03;;;;;;;;;;5094925;28;20594;-84
2020/12/27 09:24:14;;;;;;;4.20;1.80;;;;;;;;;;5095060;28;20233;-83
2020/12/27 09:26:40;;;;;;;1.30;1.20;;;;;;;;;;5095650;28;20238;-90
2020/12/27 09:29:13;;;;;;;2.10;1.90;;;;;;;;;;5095197;28;20807;-84
2020/12/27 09:31:39;;;;;;;5.40;1.90;;;;;;;;;;5095977;28;20659;-84
2020/12/27 09:34:06;;;;;;;1.77;1.50;;;;;;;;;;5095599;28;20234;-83
2020/12/27 09:36:32;;;;;;;1.57;1.30;;;;;;;;;;5096010;28;20232;-82
2020/12/27 09:38:59;;;;;;;1.30;1.27;;;;;;;;;;5095429;28;20230;-84
2020/12/27 09:41:25;;;;;;;3.17;1.70;;;;;;;;;;5095938;28;20226;-84
2020/12/27 09:43:52;;;;;;;3.33;1.63;;;;;;;;;;5095681;28;20621;-85
2020/12/27 09:46:36;;;;;;;3.03;1.70;;;;;;;;;;5095145;28;20250;-83
2020/12/27 09:49:14;;;;;;;1.87;1.67;;;;;;;;;;5095704;28;20202;-84
2020/12/27 09:51:41;;;;;;;3.00;1.53;;;;;;;;;;5093436;28;20917;-86
2020/12/27 09:54:08;;;;;;;3.77;1.73;;;;;;;;;;5092559;28;20233;-79
2020/12/27 09:56:39;;;;;;;1.33;1.23;;;;;;;;;;5092615;28;20234;-82
2020/12/27 09:59:05;;;;;;;3.60;1.80;;;;;;;;;;5091891;28;20237;-87
2020/12/27 10:01:31;;;;;;;2.30;1.70;;;;;;;;;;5091632;28;20551;-79
2020/12/27 10:03:57;;;;;;;2.03;1.50;;;;;;;;;;5091570;28;20233;-81
2020/12/27 10:06:24;;;;;;;1.67;1.43;;;;;;;;;;5091777;28;20249;-81
2020/12/27 10:08:50;;;;;;;2.40;1.60;;;;;;;;;;5091502;28;20237;-81
2020/12/27 10:11:16;;;;;;;1.57;1.47;;;;;;;;;;5091909;28;20240;-80
2020/12/27 10:13:43;;;;;;;1.80;1.40;;;;;;;;;;5090749;28;20260;-80
2020/12/27 10:16:09;;;;;;;1.37;1.30;;;;;;;;;;5091231;28;20585;-81
2020/12/27 10:18:35;;;;;;;1.30;1.30;;;;;;;;;;5090827;28;20233;-80
2020/12/27 10:21:01;;;;;;;1.67;1.57;;;;;;;;;;5091356;28;20226;-80
2020/12/27 10:23:27;;;;;;;1.37;1.30;;;;;;;;;;5091429;28;20234;-79
2020/12/27 10:25:53;;;;;;;2.77;1.90;;;;;;;;;;5091323;28;20257;-78
2020/12/27 10:28:20;;;;;;;2.20;2.00;;;;;;;;;;5090863;28;20229;-81
2020/12/27 10:30:46;;;;;;;2.03;1.93;;;;;;;;;;5091671;28;20598;-80
2020/12/27 10:33:16;;;;;;;2.60;2.00;;;;;;;;;;5091375;28;20233;-80
2020/12/27 10:35:42;;;;;;;2.23;2.00;;;;;;;;;;5091519;28;20245;-80
2020/12/27 10:38:08;;;;;;;3.27;2.30;;;;;;;;;;5090628;28;20229;-81
2020/12/27 10:40:37;;;;;;;3.13;1.97;;;;;;;;;;5091467;28;20275;-82
2020/12/27 10:43:03;;;;;;;2.33;2.13;;;;;;;;;;5090791;28;20632;-81
2020/12/27 10:45:30;;;;;;;2.20;2.00;;;;;;;;;;5091409;28;20253;-87
2020/12/27 10:47:56;;;;;;;1.97;1.87;;;;;;;;;;5091747;28;20244;-86
2020/12/27 10:50:22;;;;;;;2.60;2.40;;;;;;;;;;5091641;28;21314;-91
2020/12/27 10:52:48;;;;;;;2.70;2.50;;;;;;;;;;5091227;28;20237;-85
2020/12/27 10:55:14;;;;;;;2.30;2.20;;;;;;;;;;5091548;28;20221;-86
2020/12/27 10:57:40;;;;;;;1.97;1.87;;;;;;;;;;5095009;28;20244;-83
2020/12/27 11:00:06;;;;;;;5.17;2.37;;;;;;;;;;5095822;28;20549;-85
2020/12/27 11:02:33;;;;;;;2.87;2.17;;;;;;;;;;5094557;28;20237;-89
2020/12/27 11:04:59;;;;;;;2.40;2.20;;;;;;;;;;5095665;28;20325;-88
2020/12/27 11:07:25;;;;;;;3.53;2.30;;;;;;;;;;5095184;28;20244;-91
2020/12/27 11:09:51;;;;;;;2.50;2.10;;;;;;;;;;5095608;28;20618;-89
2020/12/27 11:12:17;;;;;;;2.90;2.60;;;;;;;;;;5094967;28;20240;-89
2020/12/27 11:14:44;;;;;;;4.27;3.20;;;;;;;;;;5095442;28;20233;-84
2020/12/27 11:17:10;;;;;;;2.50;2.30;;;;;;;;;;5094907;28;20236;-84
2020/12/27 11:19:37;;;;;;;2.67;2.03;;;;;;;;;;5095632;28;20230;-85
2020/12/27 11:22:03;;;;;;;2.30;2.20;;;;;;;;;;5097766;28;20230;-83
2020/12/27 11:24:29;;;;;;;2.40;2.20;;;;;;;;;;5098194;28;20229;-81
2020/12/27 11:26:55;;;;;;;3.73;2.50;;;;;;;;;;5097720;28;20264;-83
2020/12/27 11:29:21;;;;;;;3.73;2.60;;;;;;;;;;5098277;28;20201;-84
2020/12/27 11:31:51;;;;;;;4.63;3.47;;;;;;;;;;5097405;28;20214;-85
2020/12/27 11:34:17;;;;;;;2.87;2.67;;;;;;;;;;5098008;28;20254;-83
2020/12/27 11:36:47;;;;;;;2.97;2.47;;;;;;;;;;5097696;28;20546;-84
2020/12/27 11:39:13;;;;;;;2.63;2.43;;;;;;;;;;5098166;28;20230;-84
2020/12/27 11:41:39;;;;;;;2.67;2.47;;;;;;;;;;5097846;28;20226;-84
2020/12/27 11:44:05;;;;;;;2.97;2.70;;;;;;;;;;5097937;28;20229;-80
2020/12/27 11:46:33;;;;;;;3.80;3.50;;;;;;;;;;5097652;28;20244;-82
2020/12/27 11:48:59;;;;;;;5.60;3.40;;;;;;;;;;5097885;28;20236;-84
2020/12/27 11:51:25;;;;;;;2.83;2.47;;;;;;;;;;5097230;28;20201;-81
2020/12/27 11:53:52;;;;;;;2.60;2.40;;;;;;;;;;5097396;28;20221;-82
2020/12/27 11:56:19;;;;;;;2.40;2.30;;;;;;;;;;5097565;28;20624;-84
2020/12/27 11:58:45;;;;;;;5.23;3.90;;;;;;;;;;5097401;28;20232;-80
2020/12/27 12:01:11;;;;;;;6.50;4.70;;;;;;;;;;5097386;28;20229;-79
2020/12/27 12:03:37;;;;;;;4.90;4.13;;;;;;;;;;5097231;28;20226;-80
2020/12/27 12:06:03;;;;;;;4.27;3.87;;;;;;;;;;5097470;28;20245;-80
2020/12/27 12:08:29;;;;;;;3.00;2.67;;;;;;;;;;5096248;28;20233;-80
2020/12/27 12:10:56;;;;;;;5.50;3.53;;;;;;;;;;5097259;28;20606;-79
2020/12/27 12:13:22;;;;;;;6.03;4.40;;;;;;;;;;5097013;28;20232;-78
2020/12/27 12:15:48;;;;;;;4.90;3.63;;;;;;;;;;5097147;28;20514;-80
2020/12/27 12:18:14;;;;;;;3.30;3.00;;;;;;;;;;5097044;28;20218;-81
2020/12/27 12:20:45;;;;;;;3.97;2.67;;;;;;;;;;5096768;28;20226;-80
2020/12/27 12:23:11;;;;;;;2.40;2.20;;;;;;;;;;5096426;28;20280;-83
2020/12/27 12:25:39;;;;;;;2.65;2.45;;;;;;;;;;5095442;28;20807;-77
2020/12/27 12:28:06;;;;;;;2.30;2.20;;;;;;;;;;5096288;28;20629;-79
2020/12/27 12:30:32;;;;;;;2.53;2.33;;;;;;;;;;5096324;28;20522;-79
2020/12/27 12:32:58;;;;;;;2.60;2.37;;;;;;;;;;5096212;28;20236;-80
2020/12/27 12:35:24;;;;;;;2.90;2.70;;;;;;;;;;5095791;28;20787;-80
2020/12/27 12:37:50;;;;;;;2.60;2.40;;;;;;;;;;5096176;28;20663;-84
2020/12/27 12:40:16;;;;;;;2.77;2.57;;;;;;;;;;5095264;28;20798;-86
2020/12/27 12:42:42;;;;;;;2.73;2.53;;;;;;;;;;5096220;28;20237;-83
2020/12/27 12:45:09;;;;;;;2.50;2.40;;;;;;;;;;5096300;28;20237;-81
2020/12/27 12:47:35;;;;;;;2.40;2.30;;;;;;;;;;5096032;28;20225;-81
2020/12/27 12:50:02;;;;;;;2.70;2.50;;;;;;;;;;5096564;28;20230;-83
2020/12/27 12:52:28;;;;;;;2.43;2.10;;;;;;;;;;5095471;28;20500;-86
2020/12/27 12:54:54;;;;;;;2.53;2.33;;;;;;;;;;5096054;28;20539;-83
2020/12/27 12:57:20;;;;;;;2.40;2.20;;;;;;;;;;5095621;28;20237;-83
2020/12/27 12:59:46;;;;;;;5.07;2.23;;;;;;;;;;5095883;28;20637;-83
2020/12/27 13:02:13;;;;;;;2.83;2.53;;;;;;;;;;5094772;28;20281;-83
2020/12/27 13:04:39;;;;;;;2.73;2.53;;;;;;;;;;5095835;28;20516;-83
2020/12/27 13:07:05;;;;;;;2.53;2.33;;;;;;;;;;5095142;28;20237;-83
2020/12/27 13:09:31;;;;;;;2.53;2.33;;;;;;;;;;5095587;28;20233;-83
2020/12/27 13:11:57;;;;;;;2.47;2.37;;;;;;;;;;5094720;28;20221;-82
2020/12/27 13:14:23;;;;;;;2.70;2.50;;;;;;;;;;5095272;28;20233;-81
2020/12/27 13:16:49;;;;;;;2.87;2.67;;;;;;;;;;5095137;28;20209;-84
2020/12/27 13:19:16;;;;;;;2.80;2.10;;;;;;;;;;5094577;28;20225;-83
2020/12/27 13:21:42;;;;;;;3.23;2.60;;;;;;;;;;5095149;28;20233;-87
2020/12/27 13:24:08;;;;;;;2.43;2.23;;;;;;;;;;5095285;28;20539;-89
2020/12/27 13:26:34;;;;;;;2.80;2.43;;;;;;;;;;5094824;28;20256;-88
2020/12/27 13:29:00;;;;;;;2.83;2.63;;;;;;;;;;5095417;28;20233;-87
2020/12/27 13:31:26;;;;;;;2.70;2.50;;;;;;;;;;5095023;28;20230;-87
2020/12/27 13:33:53;;;;;;;2.80;2.60;;;;;;;;;;5094893;28;20229;-89
2020/12/27 13:36:20;;;;;;;2.53;2.33;;;;;;;;;;5093621;28;20243;-88
2020/12/27 13:38:46;;;;;;;2.33;2.20;;;;;;;;;;5094604;28;20229;-86
2020/12/27 13:41:12;;;;;;;2.63;2.43;;;;;;;;;;5094855;28;20226;-84
2020/12/27 13:43:38;;;;;;;2.73;2.57;;;;;;;;;;5094834;28;20237;-85
2020/12/27 13:46:04;;;;;;;2.70;2.50;;;;;;;;;;5094465;28;20580;-82
2020/12/27 13:48:30;;;;;;;2.87;2.47;;;;;;;;;;5094618;28;20225;-82
2020/12/27 13:50:56;;;;;;;2.80;2.60;;;;;;;;;;5094835;28;20238;-84
2020/12/27 13:53:23;;;;;;;2.67;2.47;;;;;;;;;;5094859;28;20202;-79
2020/12/27 13:55:49;;;;;;;2.90;2.70;;;;;;;;;;5094756;28;20601;-82
2020/12/27 13:58:15;;;;;;;2.90;2.67;;;;;;;;;;5094986;28;20233;-82
2020/12/27 14:00:41;;;;;;;2.83;2.63;;;;;;;;;;5094836;28;20225;-83
2020/12/27 14:03:07;;;;;;;3.03;2.83;;;;;;;;;;5094465;28;20233;-81
2020/12/27 14:05:34;;;;;;;2.60;2.40;;;;;;;;;;5094520;28;20670;-82
2020/12/27 14:08:00;;;;;;;2.73;2.50;;;;;;;;;;5094808;28;20237;-82
2020/12/27 14:10:27;;;;;;;3.20;2.97;;;;;;;;;;5094778;28;20221;-84
2020/12/27 14:12:53;;;;;;;2.50;2.30;;;;;;;;;;5094082;28;20271;-89
2020/12/27 14:15:19;;;;;;;2.70;2.50;;;;;;;;;;5094483;28;20233;-85
2020/12/27 14:17:45;;;;;;;2.70;2.50;;;;;;;;;;5094247;28;20622;-83
2020/12/27 14:20:11;;;;;;;2.57;2.47;;;;;;;;;;5094599;28;20225;-84
2020/12/27 14:22:37;;;;;;;3.40;2.63;;;;;;;;;;5094185;28;20229;-81
2020/12/27 14:25:04;;;;;;;2.53;2.30;;;;;;;;;;5094644;28;20230;-81
2020/12/27 14:27:30;;;;;;;6.00;2.47;;;;;;;;;;5093763;28;20268;-82
2020/12/27 14:29:57;;;;;;;2.60;2.40;;;;;;;;;;5095071;28;20240;-80
2020/12/27 14:32:23;;;;;;;4.33;2.47;;;;;;;;;;5098113;28;20232;-82
2020/12/27 14:34:49;;;;;;;3.07;2.40;;;;;;;;;;5098274;28;20245;-81
2020/12/27 14:37:15;;;;;;;2.80;2.20;;;;;;;;;;5098491;28;20235;-82
2020/12/27 14:39:41;;;;;;;2.43;2.33;;;;;;;;;;5098607;28;20233;-86
2020/12/27 14:42:07;;;;;;;2.47;2.33;;;;;;;;;;5098261;28;20479;-81